< < Back
Terminal Aerodrome Forecast


Current Version              Previous Versions:   1  2  3  4  5  6  7  8  9  

Terminal Aerodrome Forecast

301
FTUS42 KFFC 090523
TAFCSG
TAF
KCSG 090523Z 0906/1006 30008G16KT P6SM SCT060 BKN100
     FM091000 28011G20KT P6SM SCT035 BKN050
     FM091500 30012G22KT P6SM BKN035
     FM100200 30010KT P6SM SCT040 BKN100=

Latest METAR

807
SAUS70 KWBC 091500 RRA
MTRCSG
METAR KCSG 091451Z 30014G19KT 10SM BKN060 04/M08 A2994 RMK AO2 SLP138
T00391078 50009


USA.gov is the U.S. government's official web portal to all federal, state and local government web resources and services.